createdAt,value
2019-05-19T00:01:17.315Z,16.40
2019-05-19T00:03:46.364Z,16.40
2019-05-19T00:06:20.668Z,16.30
2019-05-19T00:26:21.122Z,16.30
2019-05-19T00:28:51.238Z,16.10
2019-05-19T00:31:20.337Z,16.10
2019-05-19T00:33:50.560Z,16.00
2019-05-19T00:36:19.803Z,16.00
2019-05-19T00:38:48.972Z,15.90
2019-05-19T00:41:18.073Z,15.90
2019-05-19T00:43:48.365Z,15.90
2019-05-19T00:46:17.466Z,15.80
2019-05-19T00:48:46.556Z,15.80
2019-05-19T00:51:16.800Z,15.80
2019-05-19T00:53:48.536Z,15.80
2019-05-19T00:56:17.833Z,15.70
2019-05-19T00:58:47.700Z,15.70
2019-05-19T01:01:16.843Z,15.70
2019-05-19T01:08:44.645Z,15.50
2019-05-19T01:11:14.723Z,15.50
2019-05-19T01:13:45.970Z,15.50
2019-05-19T01:16:15.098Z,15.50
2019-05-19T01:18:47.984Z,15.50
2019-05-19T01:21:18.509Z,15.40
2019-05-19T01:23:47.605Z,15.50
2019-05-19T01:26:16.803Z,15.40
2019-05-19T02:05:55.457Z,15.40
2019-05-19T02:08:24.552Z,14.90
2019-05-19T02:10:58.995Z,14.90
2019-05-19T02:13:28.170Z,14.80
2019-05-19T02:15:57.266Z,14.80
2019-05-19T02:18:26.362Z,14.80
2019-05-19T02:20:59.457Z,14.80
2019-05-19T02:23:31.005Z,14.80
2019-05-19T02:26:00.096Z,14.80
2019-05-19T02:28:29.191Z,14.80
2019-05-19T02:30:58.285Z,14.90
2019-05-19T02:33:27.482Z,14.90
2019-05-19T02:36:00.574Z,14.90
2019-05-19T02:38:32.944Z,14.90
2019-05-19T02:41:03.374Z,15.00
2019-05-19T02:43:36.930Z,15.00
2019-05-19T02:46:10.165Z,15.00
2019-05-19T02:48:40.007Z,15.10
2019-05-19T02:51:11.931Z,15.10
2019-05-19T02:53:42.074Z,15.20
2019-05-19T02:56:11.970Z,15.20
2019-05-19T02:58:41.477Z,15.30
2019-05-19T03:01:10.567Z,15.30
2019-05-19T03:03:39.764Z,15.40
2019-05-19T03:06:08.977Z,15.50
2019-05-19T03:08:38.157Z,15.70
2019-05-19T03:11:09.809Z,15.80
2019-05-19T03:13:39.931Z,15.90
2019-05-19T03:16:09.024Z,16.10
2019-05-19T03:18:38.126Z,16.40
2019-05-19T03:21:11.072Z,16.60
2019-05-19T03:23:37.844Z,16.70
2019-05-19T03:26:06.949Z,17.00
2019-05-19T03:28:35.938Z,17.60
2019-05-19T03:31:11.372Z,18.10
2019-05-19T03:33:48.888Z,18.50
2019-05-19T03:36:17.965Z,19.40
2019-05-19T03:38:47.079Z,19.70
2019-05-19T03:41:16.084Z,19.50
2019-05-19T03:43:45.259Z,19.20
2019-05-19T03:46:18.339Z,18.90
2019-05-19T03:48:47.437Z,18.60
2019-05-19T03:51:30.061Z,18.30
2019-05-19T03:53:47.257Z,18.20
2019-05-19T03:56:16.362Z,18.00
2019-05-19T03:58:46.579Z,17.90
2019-05-19T04:01:15.671Z,17.70
2019-05-19T04:03:44.874Z,17.80
2019-05-19T04:06:13.999Z,17.70
2019-05-19T04:08:46.334Z,17.70
2019-05-19T04:11:15.469Z,17.80
2019-05-19T04:13:44.731Z,18.10
2019-05-19T04:16:13.830Z,18.70
2019-05-19T04:18:43.334Z,19.00
2019-05-19T04:21:12.432Z,18.90
2019-05-19T04:23:41.436Z,18.70
2019-05-19T04:26:10.618Z,18.60
2019-05-19T04:28:40.601Z,18.80
2019-05-19T04:31:10.739Z,18.80
2019-05-19T04:33:39.842Z,18.70
2019-05-19T04:36:08.935Z,18.70
2019-05-19T04:38:38.030Z,18.50
2019-05-19T04:41:07.141Z,18.40
2019-05-19T04:43:36.224Z,18.50
2019-05-19T04:46:05.357Z,18.50
2019-05-19T04:48:36.486Z,18.60
2019-05-19T04:51:05.556Z,18.70
2019-05-19T04:53:38.847Z,18.90
2019-05-19T04:56:07.944Z,19.00
2019-05-19T04:58:37.141Z,19.20
2019-05-19T05:01:09.920Z,19.50
2019-05-19T05:03:38.927Z,19.60
2019-05-19T05:06:08.008Z,19.60
2019-05-19T05:08:37.103Z,19.80
2019-05-19T05:11:06.059Z,20.00
2019-05-19T05:13:35.291Z,20.40
2019-05-19T05:16:04.488Z,20.80
2019-05-19T05:18:36.144Z,22.50
2019-05-19T05:21:05.242Z,23.30
2019-05-19T05:23:36.384Z,24.60
2019-05-19T05:28:34.163Z,27.10
2019-05-19T05:31:03.358Z,28.00
2019-05-19T05:33:33.558Z,28.50
2019-05-19T05:36:05.642Z,29.40
2019-05-19T05:38:38.754Z,29.60
2019-05-19T05:41:11.176Z,30.00
2019-05-19T05:43:43.076Z,29.80
2019-05-19T05:46:12.158Z,30.20
2019-05-19T05:48:44.018Z,30.10
2019-05-19T05:51:13.113Z,30.40
2019-05-19T05:53:42.210Z,30.80
2019-05-19T05:56:11.306Z,31.10
2019-05-19T05:58:40.510Z,31.40
2019-05-19T06:01:09.701Z,31.50
2019-05-19T06:03:38.796Z,32.20
2019-05-19T06:06:07.893Z,31.80
2019-05-19T06:08:36.994Z,32.00
2019-05-19T06:11:06.077Z,32.50
2019-05-19T06:13:35.278Z,32.50
2019-05-19T06:16:04.381Z,32.80
2019-05-19T06:18:37.163Z,33.00
2019-05-19T06:21:08.584Z,32.80
2019-05-19T06:23:36.880Z,32.90
2019-05-19T06:26:06.038Z,32.90
2019-05-19T06:28:35.172Z,33.40
2019-05-19T06:31:08.264Z,33.90
2019-05-19T06:33:37.353Z,33.90
2019-05-19T06:36:06.448Z,34.20
2019-05-19T06:38:38.005Z,34.50
2019-05-19T06:41:08.157Z,34.70
2019-05-19T06:43:37.215Z,35.50
2019-05-19T06:46:06.414Z,35.50
2019-05-19T06:48:35.712Z,34.70
2019-05-19T06:51:04.810Z,34.70
2019-05-19T06:53:33.901Z,34.30
2019-05-19T06:56:02.998Z,34.20
2019-05-19T06:58:32.091Z,33.90
2019-05-19T07:01:01.192Z,34.30
2019-05-19T07:03:30.283Z,34.60
2019-05-19T07:05:59.376Z,35.00
2019-05-19T07:08:28.471Z,35.10
2019-05-19T07:10:57.496Z,35.20
2019-05-19T07:13:26.661Z,35.50
2019-05-19T07:15:55.759Z,35.30
2019-05-19T07:18:24.852Z,35.40
2019-05-19T07:20:53.949Z,35.80
2019-05-19T07:23:28.376Z,36.50
2019-05-19T07:25:55.717Z,36.70
2019-05-19T07:28:25.939Z,36.40
2019-05-19T07:30:55.034Z,36.30
2019-05-19T07:33:25.257Z,35.30
2019-05-19T07:35:54.352Z,35.30
2019-05-19T07:38:23.359Z,35.30
2019-05-19T07:40:52.538Z,35.30
2019-05-19T07:43:26.778Z,34.90
2019-05-19T07:45:56.873Z,34.30
2019-05-19T07:48:25.972Z,34.70
2019-05-19T07:50:59.710Z,35.10
2019-05-19T07:53:41.922Z,35.50
2019-05-19T07:56:05.644Z,35.20
2019-05-19T07:58:38.344Z,35.40
2019-05-19T08:01:12.127Z,35.60
2019-05-19T08:03:41.226Z,35.70
2019-05-19T08:06:10.341Z,35.50
2019-05-19T08:08:39.417Z,35.30
2019-05-19T08:11:08.508Z,35.50
2019-05-19T08:13:37.659Z,35.50
2019-05-19T08:18:36.408Z,36.30
2019-05-19T08:21:05.500Z,36.30
2019-05-19T08:23:34.698Z,36.10
2019-05-19T08:26:05.226Z,35.40
2019-05-19T08:28:34.322Z,35.10
2019-05-19T08:31:09.908Z,35.20
2019-05-19T08:33:38.974Z,35.50
2019-05-19T08:36:08.057Z,35.80
2019-05-19T08:38:37.154Z,35.60
2019-05-19T08:41:06.535Z,35.20
2019-05-19T08:43:40.358Z,35.80
2019-05-19T08:46:09.453Z,36.70
2019-05-19T08:48:38.549Z,36.80
2019-05-19T08:51:11.502Z,36.80
2019-05-19T08:53:40.628Z,36.50
2019-05-19T08:56:09.733Z,35.60
2019-05-19T08:58:38.824Z,35.00
2019-05-19T09:01:11.539Z,34.00
2019-05-19T09:03:40.695Z,33.10
2019-05-19T09:06:09.791Z,32.60
2019-05-19T09:08:38.888Z,31.50
2019-05-19T09:11:07.981Z,30.40
2019-05-19T09:13:40.559Z,29.80
2019-05-19T09:16:10.580Z,29.50
2019-05-19T09:18:42.129Z,29.30
2019-05-19T09:21:11.230Z,29.00
2019-05-19T09:23:42.779Z,28.90
2019-05-19T09:26:11.878Z,28.70
2019-05-19T09:28:40.966Z,28.50
2019-05-19T09:31:14.949Z,28.40
2019-05-19T09:33:47.350Z,28.30
2019-05-19T09:36:16.543Z,28.40
2019-05-19T09:38:45.644Z,28.50
2019-05-19T09:41:14.894Z,28.50
2019-05-19T09:43:47.287Z,28.50
2019-05-19T09:46:18.768Z,28.60
2019-05-19T09:48:49.491Z,28.70
2019-05-19T09:51:19.828Z,28.60
2019-05-19T09:53:49.901Z,28.40
2019-05-19T09:56:19.138Z,28.10
2019-05-19T09:58:54.583Z,27.80
2019-05-19T10:01:23.669Z,27.90
2019-05-19T10:03:52.766Z,28.00
2019-05-19T10:06:21.991Z,28.20
2019-05-19T10:08:54.517Z,28.20
2019-05-19T10:11:50.664Z,28.10
2019-05-19T10:14:19.865Z,28.10
2019-05-19T10:16:49.050Z,28.00
2019-05-19T10:19:20.826Z,27.90
2019-05-19T10:21:49.816Z,27.90
2019-05-19T10:24:19.091Z,27.90
2019-05-19T10:26:48.311Z,27.80
2019-05-19T10:29:17.333Z,27.80
2019-05-19T10:31:46.396Z,27.60
2019-05-19T10:34:20.908Z,27.60
2019-05-19T10:36:49.967Z,27.80
2019-05-19T10:39:19.106Z,28.00
2019-05-19T10:41:48.207Z,28.00
2019-05-19T10:44:17.418Z,28.00
2019-05-19T10:46:49.979Z,28.00
2019-05-19T10:49:22.280Z,28.00
2019-05-19T10:51:51.340Z,28.00
2019-05-19T10:54:22.483Z,28.10
2019-05-19T10:56:51.856Z,28.30
2019-05-19T10:59:20.983Z,28.40
2019-05-19T11:01:50.100Z,28.50
2019-05-19T11:04:19.178Z,28.40
2019-05-19T11:06:48.411Z,28.40
2019-05-19T11:09:21.558Z,28.50
2019-05-19T11:11:51.170Z,28.40
2019-05-19T11:14:21.090Z,28.30
2019-05-19T11:16:50.078Z,28.30
2019-05-19T11:19:21.631Z,28.40
2019-05-19T11:21:50.721Z,28.40
2019-05-19T11:24:22.478Z,28.40
2019-05-19T11:26:53.518Z,28.40
2019-05-19T11:29:22.617Z,28.30
2019-05-19T11:31:51.709Z,28.40
2019-05-19T11:34:20.819Z,28.40
2019-05-19T11:36:51.127Z,28.30
2019-05-19T11:39:20.320Z,28.00
2019-05-19T11:41:50.636Z,27.90
2019-05-19T11:44:26.347Z,27.80
2019-05-19T11:46:55.492Z,27.70
2019-05-19T11:49:24.793Z,27.70
2019-05-19T11:51:53.993Z,27.90
2019-05-19T11:54:23.087Z,28.10
2019-05-19T11:56:52.185Z,28.00
2019-05-19T11:59:21.159Z,28.00
2019-05-19T12:01:53.189Z,28.10
2019-05-19T12:04:28.386Z,28.10
2019-05-19T12:06:57.672Z,28.10
2019-05-19T12:09:26.767Z,28.00
2019-05-19T12:11:58.484Z,28.10
2019-05-19T12:14:31.479Z,28.20
2019-05-19T12:17:03.613Z,28.20
2019-05-19T12:19:31.339Z,28.10
2019-05-19T12:22:00.361Z,28.20
2019-05-19T12:24:29.465Z,28.20
2019-05-19T12:26:58.630Z,28.10
2019-05-19T12:29:31.299Z,27.90
2019-05-19T12:32:00.530Z,27.90
2019-05-19T12:34:29.709Z,28.10
2019-05-19T12:37:00.753Z,28.20
2019-05-19T12:39:39.872Z,28.20
2019-05-19T12:42:09.062Z,28.20
2019-05-19T12:44:43.407Z,28.20
2019-05-19T12:47:12.476Z,28.30
2019-05-19T12:49:45.601Z,28.30
2019-05-19T12:52:14.677Z,28.20
2019-05-19T12:54:46.321Z,28.20
2019-05-19T12:57:15.410Z,28.10
2019-05-19T12:59:44.627Z,28.10
2019-05-19T13:02:18.835Z,28.10
2019-05-19T13:05:04.425Z,27.90
2019-05-19T13:07:22.752Z,28.10
2019-05-19T13:09:51.970Z,28.10
2019-05-19T13:12:21.045Z,28.00
2019-05-19T13:14:50.444Z,28.10
2019-05-19T13:17:19.540Z,28.00
2019-05-19T13:19:49.581Z,28.10
2019-05-19T13:22:19.673Z,28.10
2019-05-19T13:24:48.871Z,27.90
2019-05-19T13:27:17.792Z,28.00
2019-05-19T13:29:47.793Z,28.00
2019-05-19T13:32:17.073Z,28.10
2019-05-19T13:34:46.273Z,28.10
2019-05-19T13:37:16.388Z,28.00
2019-05-19T13:39:45.484Z,28.00
2019-05-19T13:42:16.943Z,27.90
2019-05-19T13:44:46.029Z,27.90
2019-05-19T13:47:15.224Z,27.90
2019-05-19T13:49:48.319Z,28.00
2019-05-19T13:52:17.414Z,28.00
2019-05-19T13:54:47.539Z,27.90
2019-05-19T13:57:18.322Z,28.00
2019-05-19T13:59:49.918Z,28.00
2019-05-19T14:02:22.658Z,28.20
2019-05-19T14:04:51.798Z,28.30
2019-05-19T14:07:21.065Z,28.30
2019-05-19T14:09:50.298Z,28.20
2019-05-19T14:12:22.118Z,28.10
2019-05-19T14:14:51.251Z,28.10
2019-05-19T14:17:20.646Z,28.00
2019-05-19T14:19:57.667Z,28.00
2019-05-19T14:22:26.413Z,28.00
2019-05-19T14:24:55.622Z,28.00
2019-05-19T14:27:30.080Z,28.00
2019-05-19T14:29:55.542Z,28.00
2019-05-19T14:32:24.646Z,27.90
2019-05-19T14:34:54.723Z,27.90
2019-05-19T14:37:23.952Z,27.90
2019-05-19T14:39:53.158Z,27.80
2019-05-19T14:42:40.163Z,27.80
2019-05-19T14:45:09.649Z,27.90
2019-05-19T14:47:41.104Z,27.70
2019-05-19T14:50:10.827Z,27.70
2019-05-19T14:52:40.040Z,27.70
2019-05-19T14:55:10.155Z,27.70
2019-05-19T14:57:45.344Z,27.70
2019-05-19T15:00:14.340Z,27.60
2019-05-19T15:02:44.073Z,27.70
2019-05-19T15:05:13.998Z,27.60
2019-05-19T15:07:43.099Z,27.60
2019-05-19T15:10:12.303Z,27.70
2019-05-19T15:12:41.392Z,27.60
2019-05-19T15:15:10.852Z,27.70
2019-05-19T15:17:40.030Z,27.70
2019-05-19T15:20:11.503Z,27.60
2019-05-19T15:22:40.634Z,27.60
2019-05-19T15:25:09.932Z,27.60
2019-05-19T15:27:39.028Z,27.50
2019-05-19T15:30:13.078Z,27.50
2019-05-19T15:32:39.266Z,27.50
2019-05-19T15:35:09.664Z,27.40
2019-05-19T15:40:09.990Z,27.40
2019-05-19T15:42:43.135Z,27.30
2019-05-19T15:45:16.518Z,27.40
2019-05-19T15:47:45.615Z,27.40
2019-05-19T15:50:16.273Z,27.40
2019-05-19T15:52:45.335Z,27.40
2019-05-19T15:55:15.458Z,27.30
2019-05-19T15:57:44.658Z,27.30
2019-05-19T16:00:14.502Z,27.30
2019-05-19T16:02:44.788Z,27.30
2019-05-19T16:05:13.936Z,27.30
2019-05-19T16:07:43.402Z,27.10
2019-05-19T16:10:14.571Z,27.10
2019-05-19T16:12:43.627Z,27.10
2019-05-19T16:15:17.189Z,27.00
2019-05-19T16:17:46.420Z,27.00
2019-05-19T16:20:23.898Z,27.00
2019-05-19T16:22:56.083Z,26.90
2019-05-19T16:25:27.857Z,26.90
2019-05-19T16:28:01.066Z,26.90
2019-05-19T16:30:30.021Z,26.80
2019-05-19T16:33:03.408Z,26.70
2019-05-19T16:35:32.517Z,26.70
2019-05-19T16:38:01.819Z,26.70
2019-05-19T16:40:30.929Z,26.70
2019-05-19T16:43:02.343Z,26.60
2019-05-19T16:45:32.984Z,26.60
2019-05-19T16:48:02.159Z,26.50
2019-05-19T16:50:31.246Z,26.50
2019-05-19T16:53:00.298Z,26.40
2019-05-19T16:55:30.953Z,26.30
2019-05-19T16:58:00.360Z,26.30
2019-05-19T17:00:30.144Z,26.20
2019-05-19T17:02:59.424Z,26.20
2019-05-19T17:05:28.614Z,26.10
2019-05-19T17:07:57.725Z,26.00
2019-05-19T17:10:27.930Z,26.00
2019-05-19T17:12:56.878Z,25.90
2019-05-19T17:15:26.021Z,25.80
2019-05-19T17:17:56.344Z,25.80
2019-05-19T17:20:25.644Z,25.70
2019-05-19T17:22:54.651Z,25.70
2019-05-19T17:25:24.348Z,25.60
2019-05-19T17:27:53.449Z,25.50
2019-05-19T17:30:22.740Z,25.40
2019-05-19T17:32:51.869Z,25.30
2019-05-19T17:35:24.723Z,25.30
2019-05-19T17:37:53.815Z,25.20
2019-05-19T17:40:23.015Z,25.00
2019-05-19T17:42:55.916Z,24.90
2019-05-19T17:45:25.104Z,24.80
2019-05-19T17:48:08.801Z,24.70
2019-05-19T17:50:32.908Z,24.60
2019-05-19T17:53:02.613Z,24.50
2019-05-19T17:55:34.214Z,24.30
2019-05-19T17:58:04.040Z,24.20
2019-05-19T18:00:41.233Z,24.10
2019-05-19T18:03:10.972Z,23.90
2019-05-19T18:05:42.652Z,23.90
2019-05-19T18:08:11.828Z,23.70
2019-05-19T18:10:40.897Z,23.70
2019-05-19T18:13:11.909Z,23.60
2019-05-19T18:15:41.178Z,23.50
2019-05-19T18:18:10.560Z,23.40
2019-05-19T18:20:39.658Z,23.30
2019-05-19T18:23:08.860Z,23.20
2019-05-19T18:25:38.050Z,23.10
2019-05-19T18:28:08.134Z,23.10
2019-05-19T18:30:37.269Z,23.00
2019-05-19T18:33:06.360Z,22.90
2019-05-19T18:35:35.455Z,22.80
2019-05-19T18:38:04.759Z,22.70
2019-05-19T18:40:33.852Z,22.70
2019-05-19T18:43:03.319Z,22.50
2019-05-19T18:45:32.454Z,22.50
2019-05-19T18:48:01.678Z,22.40
2019-05-19T18:50:30.744Z,22.30
2019-05-19T18:52:59.837Z,22.30
2019-05-19T18:55:28.837Z,22.10
2019-05-19T18:57:58.847Z,22.10
2019-05-19T19:00:38.441Z,21.90
2019-05-19T19:03:10.508Z,21.70
2019-05-19T19:05:39.645Z,21.60
2019-05-19T19:08:08.740Z,21.40
2019-05-19T19:10:37.781Z,21.40
2019-05-19T19:13:09.597Z,21.20
2019-05-19T19:15:38.689Z,21.10
2019-05-19T19:18:08.809Z,21.00
2019-05-19T19:20:37.907Z,20.90
2019-05-19T19:23:08.005Z,20.80
2019-05-19T19:25:40.810Z,20.70
2019-05-19T19:28:11.134Z,20.60
2019-05-19T19:30:40.231Z,20.60
2019-05-19T19:33:11.982Z,20.50
2019-05-19T19:35:40.976Z,20.40
2019-05-19T19:38:10.065Z,20.30
2019-05-19T19:40:39.161Z,20.20
2019-05-19T19:43:08.460Z,20.20
2019-05-19T19:45:38.585Z,20.10
2019-05-19T19:48:07.673Z,20.10
2019-05-19T19:50:36.742Z,20.00
2019-05-19T19:53:07.781Z,20.00
2019-05-19T19:55:36.922Z,19.90
2019-05-19T19:58:08.044Z,19.90
2019-05-19T20:00:39.226Z,19.80
2019-05-19T20:03:11.268Z,19.70
2019-05-19T20:05:40.573Z,19.70
2019-05-19T20:08:09.750Z,19.70
2019-05-19T20:10:38.956Z,19.70
2019-05-19T20:13:08.455Z,19.70
2019-05-19T20:15:37.958Z,19.70
2019-05-19T20:18:07.156Z,19.70
2019-05-19T20:20:36.247Z,19.70
2019-05-19T20:23:09.159Z,19.70
2019-05-19T20:25:38.228Z,19.70
2019-05-19T20:28:07.793Z,19.80
2019-05-19T20:30:37.207Z,19.80
2019-05-19T20:33:06.439Z,19.80
2019-05-19T20:35:35.537Z,19.70
2019-05-19T20:38:04.864Z,19.70
2019-05-19T20:40:33.932Z,19.70
2019-05-19T20:43:06.609Z,19.70
2019-05-19T20:45:35.752Z,19.70
2019-05-19T20:48:05.106Z,19.60
2019-05-19T20:50:34.416Z,19.60
2019-05-19T20:53:03.613Z,19.60
2019-05-19T20:55:36.274Z,19.60
2019-05-19T20:58:08.135Z,19.60
2019-05-19T21:00:50.091Z,19.50
2019-05-19T21:03:10.420Z,19.50
2019-05-19T21:05:39.627Z,19.50
2019-05-19T21:08:08.725Z,19.50
2019-05-19T21:10:41.288Z,19.40
2019-05-19T21:13:10.355Z,19.40
2019-05-19T21:15:42.861Z,19.30
2019-05-19T21:18:12.056Z,19.30
2019-05-19T21:20:41.154Z,19.30
2019-05-19T21:23:10.451Z,19.30
2019-05-19T21:25:39.550Z,19.30
2019-05-19T21:28:08.651Z,19.30
2019-05-19T21:30:37.734Z,19.20
2019-05-19T21:33:07.958Z,19.20
2019-05-19T21:35:38.903Z,19.20
2019-05-19T21:38:08.130Z,19.10
2019-05-19T21:40:37.189Z,19.10
2019-05-19T21:43:08.508Z,19.10
2019-05-19T21:45:39.561Z,19.10
2019-05-19T21:48:09.200Z,19.10
2019-05-19T21:50:41.176Z,19.10
2019-05-19T21:53:12.858Z,19.10
2019-05-19T21:55:41.484Z,19.10
2019-05-19T21:58:10.665Z,19.20
2019-05-19T22:00:44.966Z,19.10
2019-05-19T22:03:19.501Z,19.10
2019-05-19T22:05:53.239Z,19.00
2019-05-19T22:08:19.145Z,19.00
2019-05-19T22:10:50.900Z,19.00
2019-05-19T22:13:19.931Z,19.00
2019-05-19T22:15:49.093Z,18.90
2019-05-19T22:18:18.189Z,18.80
2019-05-19T22:20:47.327Z,18.80
2019-05-19T22:23:16.599Z,18.70
2019-05-19T22:25:45.780Z,18.70
2019-05-19T22:28:14.994Z,18.70
2019-05-19T22:30:46.530Z,18.70
2019-05-19T22:33:15.628Z,18.70
2019-05-19T22:35:44.716Z,18.60
2019-05-19T22:38:16.404Z,18.60
2019-05-19T22:40:48.847Z,18.60
2019-05-19T22:43:17.943Z,18.50
2019-05-19T22:45:47.095Z,18.50
2019-05-19T22:48:16.235Z,18.40
2019-05-19T22:50:45.329Z,18.40
2019-05-19T22:53:14.424Z,18.40
2019-05-19T22:55:43.519Z,18.30
2019-05-19T22:58:12.717Z,18.30
2019-05-19T23:00:42.267Z,18.30
2019-05-19T23:03:11.696Z,18.20
2019-05-19T23:05:42.227Z,18.20
2019-05-19T23:08:11.590Z,18.10
2019-05-19T23:10:40.666Z,18.20
2019-05-19T23:13:09.997Z,18.20
2019-05-19T23:15:39.485Z,18.20
2019-05-19T23:18:08.911Z,18.20
2019-05-19T23:20:42.770Z,18.10
2019-05-19T23:23:16.359Z,18.10
2019-05-19T23:25:47.967Z,18.10
2019-05-19T23:28:19.641Z,18.10
2019-05-19T23:30:51.059Z,18.00
2019-05-19T23:33:25.240Z,18.00
2019-05-19T23:35:55.065Z,18.00
2019-05-19T23:38:27.063Z,18.00
2019-05-19T23:41:00.320Z,17.90
2019-05-19T23:43:29.507Z,17.90
2019-05-19T23:46:00.978Z,17.90
2019-05-19T23:48:36.713Z,17.80
2019-05-19T23:51:06.290Z,17.80
2019-05-19T23:53:35.762Z,17.80
2019-05-19T23:56:08.141Z,17.80
2019-05-19T23:58:39.857Z,17.80
